Time;durP1;ratioP1;P1;durP2;ratioP2;P2;SDS_P1;SDS_P2;PMS_P1;PMS_P2;Temp;Humidity;BMP_temperature;BMP_pressure;BME280_temperature;BME280_humidity;BME280_pressure;Samples;Min_cycle;Max_cycle;Signal;HPM_P1;HPM_P2
2022/01/19 00:00:25;;;;;;;22.80;8.07;;;5.30;99.90;;;;;;5005354;28;20034;-74
2022/01/19 00:02:51;;;;;;;21.80;7.10;;;5.30;99.90;;;;;;5006816;28;20030;-74
2022/01/19 00:05:16;;;;;;;20.10;7.10;;;5.30;99.90;;;;;;5024749;28;20036;-73
2022/01/19 00:07:42;;;;;;;19.02;7.30;;;5.40;99.90;;;;;;5024881;28;20030;-74
2022/01/19 00:10:11;;;;;;;23.50;6.88;;;5.30;99.90;;;;;;5007373;28;20112;-73
2022/01/19 00:12:38;;;;;;;23.13;7.63;;;5.30;99.90;;;;;;5024530;28;20033;-75
2022/01/19 00:15:07;;;;;;;15.30;5.05;;;5.30;99.90;;;;;;5024682;28;20050;-73
2022/01/19 00:17:39;;;;;;;24.50;6.30;;;5.30;99.90;;;;;;5024225;28;20068;-74
2022/01/19 00:20:07;;;;;;;21.05;6.80;;;5.30;99.90;;;;;;5024152;28;20034;-75
2022/01/19 00:22:33;;;;;;;18.10;7.45;;;5.30;99.90;;;;;;5024957;28;20026;-72
2022/01/19 00:24:59;;;;;;;20.08;7.68;;;5.30;99.90;;;;;;5024988;28;20037;-73
2022/01/19 00:27:25;;;;;;;21.13;6.22;;;5.30;99.90;;;;;;5022496;28;20023;-75
2022/01/19 00:29:51;;;;;;;22.85;7.10;;;5.30;99.90;;;;;;5024297;28;20030;-73
2022/01/19 00:32:16;;;;;;;19.98;7.03;;;5.30;99.90;;;;;;5006715;28;20033;-74
2022/01/19 00:34:42;;;;;;;26.05;8.13;;;5.30;99.90;;;;;;5024274;28;20098;-74
2022/01/19 00:37:07;;;;;;;20.90;7.47;;;5.30;99.90;;;;;;5024867;28;20030;-73
2022/01/19 00:39:33;;;;;;;20.73;7.68;;;5.30;99.90;;;;;;5024315;28;20030;-75
2022/01/19 00:42:00;;;;;;;23.60;7.90;;;5.30;99.90;;;;;;5022989;28;20038;-74
2022/01/19 00:44:26;;;;;;;31.88;9.55;;;5.30;99.90;;;;;;5022483;28;20033;-74
2022/01/19 00:46:52;;;;;;;27.33;10.23;;;5.30;99.90;;;;;;5023691;28;20057;-74
2022/01/19 00:49:17;;;;;;;27.33;8.50;;;5.30;99.90;;;;;;5024042;28;20026;-74
2022/01/19 00:51:43;;;;;;;28.77;8.25;;;5.30;99.90;;;;;;5006975;28;20052;-74
2022/01/19 00:54:08;;;;;;;23.17;9.30;;;5.30;99.90;;;;;;5025712;28;20048;-74
2022/01/19 00:56:35;;;;;;;32.97;10.50;;;5.30;99.90;;;;;;5026313;28;20030;-75
2022/01/19 00:59:07;;;;;;;32.85;8.70;;;5.30;99.90;;;;;;5010021;28;20032;-74
2022/01/19 01:01:33;;;;;;;22.55;7.70;;;5.30;99.90;;;;;;5028210;28;20030;-76
2022/01/19 01:03:59;;;;;;;26.85;9.50;;;5.30;99.90;;;;;;5027897;28;20085;-76
2022/01/19 01:06:25;;;;;;;32.90;8.80;;;5.30;99.90;;;;;;5010687;28;20030;-73
2022/01/19 01:08:53;;;;;;;29.33;8.20;;;5.30;99.90;;;;;;5027551;28;20041;-75
2022/01/19 01:11:28;;;;;;;35.67;9.90;;;5.40;99.90;;;;;;5010189;28;20065;-74
2022/01/19 01:16:38;;;;;;;24.70;8.30;;;5.30;99.90;;;;;;5028040;28;20037;-74
2022/01/19 01:19:08;;;;;;;35.20;8.65;;;5.30;99.90;;;;;;5028660;28;20026;-75
2022/01/19 01:21:34;;;;;;;29.65;9.80;;;5.40;99.90;;;;;;5028211;28;20022;-74
2022/01/19 01:24:02;;;;;;;36.00;9.57;;;5.40;99.90;;;;;;5028062;28;20073;-74
2022/01/19 01:26:29;;;;;;;37.38;11.70;;;5.30;99.90;;;;;;5010537;28;20033;-75
2022/01/19 01:28:55;;;;;;;35.03;10.32;;;5.30;99.90;;;;;;5027880;28;20030;-75
2022/01/19 01:31:20;;;;;;;41.60;11.38;;;5.30;99.90;;;;;;5010128;28;20022;-75
2022/01/19 01:33:46;;;;;;;34.13;9.55;;;5.30;99.90;;;;;;5028009;28;20033;-74
2022/01/19 01:36:12;;;;;;;36.20;10.55;;;5.20;99.90;;;;;;5026212;28;20026;-74
2022/01/19 01:38:38;;;;;;;41.13;10.10;;;5.20;99.90;;;;;;5027632;28;20026;-74
2022/01/19 01:41:09;;;;;;;30.20;8.90;;;5.20;99.90;;;;;;5027830;28;20027;-74
2022/01/19 01:43:38;;;;;;;39.22;9.45;;;5.20;99.90;;;;;;5027301;28;20089;-76
2022/01/19 01:46:12;;;;;;;27.50;9.13;;;5.20;99.90;;;;;;5026309;28;20034;-74
2022/01/19 01:48:43;;;;;;;24.70;9.85;;;5.20;99.90;;;;;;5027685;28;20082;-75
2022/01/19 01:54:00;;;;;;;43.60;9.35;;;5.20;99.90;;;;;;5027927;28;20095;-76
2022/01/19 01:56:26;;;;;;;25.63;9.05;;;5.30;99.90;;;;;;5009954;28;20048;-76
2022/01/19 01:58:52;;;;;;;27.52;9.32;;;5.20;99.90;;;;;;5027101;28;20652;-76
2022/01/19 02:01:18;;;;;;;22.35;7.03;;;5.20;99.90;;;;;;5026650;28;20066;-76
2022/01/19 02:03:44;;;;;;;26.83;8.30;;;5.30;99.90;;;;;;5026896;28;20026;-76
2022/01/19 02:08:50;;;;;;;26.25;9.20;;;5.30;99.90;;;;;;5027313;28;20105;-73
2022/01/19 02:16:50;;;;;;;22.02;6.97;;;5.20;99.90;;;;;;5027500;28;20070;-73
2022/01/19 02:22:02;;;;;;;22.58;8.02;;;5.20;99.90;;;;;;5027252;28;20060;-75
2022/01/19 02:24:42;;;;;;;18.25;6.88;;;5.20;99.90;;;;;;5008626;28;20030;-75
2022/01/19 02:28:54;;;;;;;32.00;8.25;;;5.20;99.90;;;;;;5024888;28;20031;-74
2022/01/19 02:40:22;;;;;;;33.38;9.35;;;5.10;99.90;;;;;;5006840;28;21171;-74
2022/01/19 02:43:06;;;;;;;22.45;7.57;;;5.10;99.90;;;;;;5005706;28;20018;-74
2022/01/19 02:51:11;;;;;;;20.63;7.70;;;5.10;99.90;;;;;;5007038;28;20069;-76
2022/01/19 02:53:38;;;;;;;33.50;9.95;;;5.10;99.90;;;;;;5011874;28;20038;-75
2022/01/19 02:56:18;;;;;;;41.42;10.75;;;5.10;99.90;;;;;;5026037;28;20065;-74
2022/01/19 02:58:47;;;;;;;28.30;8.95;;;5.10;99.90;;;;;;5026286;28;20086;-75
2022/01/19 03:09:23;;;;;;;45.83;12.07;;;5.10;99.90;;;;;;5025885;28;20026;-73
2022/01/19 03:11:48;;;;;;;51.97;14.23;;;5.10;99.90;;;;;;5025912;28;20034;-74
2022/01/19 03:14:14;;;;;;;41.72;13.63;;;5.00;99.90;;;;;;5025740;28;20060;-73
2022/01/19 03:16:40;;;;;;;39.20;11.82;;;5.10;99.90;;;;;;5024986;28;20113;-74
2022/01/19 03:19:08;;;;;;;18.85;7.75;;;5.00;99.90;;;;;;5025860;28;20026;-74
2022/01/19 03:21:34;;;;;;;33.63;9.88;;;5.10;99.90;;;;;;5025910;28;20025;-75
2022/01/19 03:24:01;;;;;;;30.33;10.52;;;5.00;99.90;;;;;;5025613;28;20025;-76
2022/01/19 03:26:27;;;;;;;30.27;8.70;;;5.00;99.90;;;;;;5024824;28;20038;-74
2022/01/19 03:28:53;;;;;;;23.42;8.15;;;5.00;99.90;;;;;;5025714;28;20033;-74
2022/01/19 03:31:19;;;;;;;24.30;8.80;;;5.00;99.90;;;;;;5025379;28;20560;-73
2022/01/19 03:33:45;;;;;;;16.55;6.90;;;5.00;99.90;;;;;;5025434;28;20129;-73
2022/01/19 03:36:11;;;;;;;24.23;6.82;;;4.90;99.90;;;;;;5008028;28;20026;-72
2022/01/19 03:38:38;;;;;;;26.10;7.00;;;5.00;99.90;;;;;;5025283;28;20040;-75
2022/01/19 03:41:04;;;;;;;24.83;7.78;;;5.00;99.90;;;;;;5023975;28;20026;-74
2022/01/19 03:43:31;;;;;;;16.15;6.47;;;5.10;99.90;;;;;;5025724;28;20032;-75
2022/01/19 03:45:59;;;;;;;18.77;6.03;;;4.90;99.90;;;;;;5023745;28;20098;-73
2022/01/19 03:48:37;;;;;;;15.15;6.68;;;4.90;99.90;;;;;;5007976;28;20022;-73
2022/01/19 03:51:04;;;;;;;18.20;4.97;;;4.90;99.90;;;;;;5025619;28;20022;-73
2022/01/19 03:53:30;;;;;;;20.00;6.22;;;4.90;99.90;;;;;;5023538;28;20057;-74
2022/01/19 03:55:57;;;;;;;18.75;6.15;;;5.00;99.90;;;;;;5024132;28;20037;-73
2022/01/19 03:58:22;;;;;;;19.70;6.22;;;4.80;99.90;;;;;;5024960;28;20018;-73
2022/01/19 04:00:53;;;;;;;18.60;6.78;;;4.90;99.90;;;;;;5024997;28;20082;-73
2022/01/19 04:03:23;;;;;;;18.75;5.43;;;4.90;99.90;;;;;;5024900;28;20060;-75
2022/01/19 04:08:17;;;;;;;24.55;7.18;;;5.00;99.90;;;;;;5025071;28;20064;-74
2022/01/19 04:10:42;;;;;;;28.58;6.95;;;4.90;99.90;;;;;;5023558;28;20093;-74
2022/01/19 04:13:24;;;;;;;17.75;5.57;;;4.90;99.90;;;;;;5024346;28;20030;-75
2022/01/19 04:15:51;;;;;;;30.20;8.18;;;4.90;99.90;;;;;;5024757;28;20112;-73
2022/01/19 04:18:17;;;;;;;22.75;8.52;;;4.90;99.90;;;;;;5024536;28;20025;-73
2022/01/19 04:20:44;;;;;;;18.15;6.65;;;5.00;99.90;;;;;;5024613;28;20033;-73
2022/01/19 04:23:09;;;;;;;18.77;6.43;;;5.00;99.90;;;;;;5025085;28;20018;-73
2022/01/19 04:25:35;;;;;;;18.95;8.23;;;5.00;99.90;;;;;;5023507;28;20389;-74
2022/01/19 04:28:07;;;;;;;18.70;6.65;;;5.00;99.90;;;;;;5024805;28;20030;-76
2022/01/19 04:30:34;;;;;;;22.40;6.53;;;5.00;99.90;;;;;;5023188;28;20371;-76
2022/01/19 04:33:13;;;;;;;30.60;7.78;;;5.00;99.90;;;;;;5024434;28;20034;-74
2022/01/19 04:35:49;;;;;;;20.05;6.68;;;5.00;99.90;;;;;;5023788;28;20026;-73
2022/01/19 04:44:13;;;;;;;22.83;6.30;;;4.80;99.90;;;;;;5024835;28;20036;-73
2022/01/19 04:54:44;;;;;;;19.02;5.88;;;4.60;99.90;;;;;;5024139;28;20041;-72
2022/01/19 05:03:04;;;;;;;27.27;5.93;;;4.40;99.90;;;;;;5024438;28;19917;-73
2022/01/19 05:05:43;;;;;;;29.80;6.90;;;4.30;99.90;;;;;;5023711;28;20437;-73
2022/01/19 05:16:08;;;;;;;24.15;5.88;;;4.30;99.90;;;;;;4982442;28;20049;-73
2022/01/19 05:18:35;;;;;;;16.00;6.93;;;4.10;99.90;;;;;;4999356;28;20031;-73
2022/01/19 05:21:00;;;;;;;14.35;5.45;;;4.10;99.90;;;;;;5004551;28;20493;-76
2022/01/19 05:23:26;;;;;;;20.88;6.95;;;4.10;99.90;;;;;;5004417;28;20559;-75
2022/01/19 05:25:51;;;;;;;14.68;6.35;;;4.10;99.90;;;;;;5004720;28;20026;-72
2022/01/19 05:28:17;;;;;;;19.83;6.53;;;4.10;99.90;;;;;;5002977;28;20022;-73
2022/01/19 05:30:43;;;;;;;18.48;7.07;;;4.10;99.90;;;;;;5004196;28;20033;-75
2022/01/19 05:33:09;;;;;;;17.63;6.57;;;4.10;99.90;;;;;;5004508;28;20069;-73
2022/01/19 05:35:35;;;;;;;26.88;5.53;;;4.10;99.90;;;;;;5003518;28;20026;-74
2022/01/19 05:38:00;;;;;;;30.38;8.60;;;4.10;99.90;;;;;;5003408;28;20022;-74
2022/01/19 05:40:26;;;;;;;16.67;6.65;;;4.20;99.90;;;;;;5006319;28;20762;-76
2022/01/19 05:42:52;;;;;;;23.27;8.13;;;4.20;99.90;;;;;;5007721;28;20041;-74
2022/01/19 05:45:18;;;;;;;21.98;7.05;;;4.20;99.90;;;;;;5007737;28;20588;-75
2022/01/19 05:47:45;;;;;;;20.30;6.45;;;4.20;99.90;;;;;;5007948;28;20030;-74
2022/01/19 05:50:12;;;;;;;20.67;7.38;;;4.20;99.90;;;;;;5006227;28;20031;-74
2022/01/19 05:52:38;;;;;;;32.63;8.20;;;4.20;99.90;;;;;;5007840;28;20026;-73
2022/01/19 05:55:04;;;;;;;18.33;6.32;;;4.30;99.90;;;;;;5008077;28;20053;-74
2022/01/19 05:57:32;;;;;;;34.88;8.50;;;4.30;99.90;;;;;;5007643;28;20080;-75
2022/01/19 05:59:57;;;;;;;24.73;7.68;;;4.30;99.90;;;;;;5008064;28;20057;-73
2022/01/19 06:02:23;;;;;;;23.33;6.90;;;4.40;99.90;;;;;;5007475;28;20030;-74
2022/01/19 06:04:49;;;;;;;27.00;7.28;;;4.40;99.90;;;;;;5006858;28;20029;-74
2022/01/19 06:07:15;;;;;;;21.17;7.47;;;4.40;99.90;;;;;;5007746;28;20026;-73
2022/01/19 06:12:11;;;;;;;19.75;6.60;;;4.40;99.90;;;;;;5007132;28;20506;-74
2022/01/19 06:14:39;;;;;;;20.10;7.25;;;4.40;99.90;;;;;;5014657;28;20076;-73
2022/01/19 06:17:07;;;;;;;29.63;7.90;;;4.40;99.90;;;;;;5009174;28;20026;-74
2022/01/19 06:19:33;;;;;;;19.27;7.57;;;4.40;99.90;;;;;;5025344;28;20058;-74
2022/01/19 06:21:59;;;;;;;25.80;7.80;;;4.40;99.90;;;;;;5024363;28;20470;-73
2022/01/19 06:24:24;;;;;;;23.52;7.80;;;4.50;99.90;;;;;;5026584;28;20017;-74
2022/01/19 06:26:50;;;;;;;19.23;8.35;;;4.50;99.90;;;;;;5026677;28;20040;-72
2022/01/19 06:29:16;;;;;;;21.52;8.50;;;4.40;99.90;;;;;;5027075;28;20026;-73
2022/01/19 06:31:42;;;;;;;35.45;8.98;;;4.50;99.90;;;;;;5008736;28;20028;-72
2022/01/19 06:34:07;;;;;;;24.05;9.15;;;4.50;99.90;;;;;;5024874;28;20041;-73
2022/01/19 06:36:36;;;;;;;32.88;10.63;;;4.50;99.90;;;;;;5025557;28;20030;-74
2022/01/19 06:39:03;;;;;;;47.40;11.13;;;4.60;99.90;;;;;;5026512;28;20056;-75
2022/01/19 06:41:30;;;;;;;32.30;11.00;;;4.50;99.90;;;;;;5026593;28;20029;-73
2022/01/19 06:43:56;;;;;;;36.28;10.77;;;4.50;99.90;;;;;;5026764;28;20049;-73
2022/01/19 06:46:22;;;;;;;35.95;12.82;;;4.50;99.90;;;;;;5026270;28;20032;-74
2022/01/19 06:48:47;;;;;;;40.92;11.88;;;4.50;99.90;;;;;;5026388;28;20032;-74
2022/01/19 06:51:14;;;;;;;29.55;12.05;;;4.50;99.90;;;;;;5025507;28;20052;-73
2022/01/19 06:53:39;;;;;;;33.92;11.82;;;4.60;99.90;;;;;;5025927;28;20042;-76
2022/01/19 06:56:05;;;;;;;37.80;13.18;;;4.70;99.90;;;;;;5024965;28;20021;-74
2022/01/19 06:58:30;;;;;;;29.40;12.07;;;4.60;99.90;;;;;;5026313;28;20033;-74
2022/01/19 07:00:56;;;;;;;31.63;11.18;;;4.60;99.90;;;;;;5025823;28;20033;-74
2022/01/19 07:03:22;;;;;;;36.65;12.50;;;4.60;99.90;;;;;;5025979;28;20078;-77
2022/01/19 07:05:49;;;;;;;33.83;12.15;;;4.60;99.90;;;;;;5024534;28;20070;-79
2022/01/19 07:08:15;;;;;;;41.63;12.18;;;4.60;99.90;;;;;;5007850;28;20022;-76
2022/01/19 07:10:49;;;;;;;31.65;11.80;;;4.60;99.90;;;;;;5021411;28;20033;-77
2022/01/19 07:13:14;;;;;;;36.67;14.10;;;4.70;99.90;;;;;;5027404;28;20042;-77
2022/01/19 07:15:40;;;;;;;42.45;13.10;;;4.60;99.90;;;;;;5013584;28;20048;-76
2022/01/19 07:18:07;;;;;;;30.30;10.80;;;4.70;99.90;;;;;;5015303;28;20442;-78
2022/01/19 07:20:33;;;;;;;42.30;13.18;;;4.70;99.90;;;;;;5013556;28;20026;-76
2022/01/19 07:23:01;;;;;;;37.80;12.73;;;4.70;99.90;;;;;;5016536;28;20086;-75
2022/01/19 07:25:29;;;;;;;33.95;12.20;;;4.70;99.90;;;;;;5009953;28;20034;-75
2022/01/19 07:27:54;;;;;;;40.17;12.95;;;4.70;99.90;;;;;;5017025;28;20034;-74
2022/01/19 07:30:20;;;;;;;34.58;12.50;;;4.70;99.90;;;;;;5015480;28;20162;-73
2022/01/19 07:32:48;;;;;;;49.67;13.88;;;4.70;99.90;;;;;;5019078;28;20026;-75
2022/01/19 07:35:15;;;;;;;35.80;14.55;;;4.70;99.90;;;;;;5025252;28;20109;-73
2022/01/19 07:37:41;;;;;;;46.13;14.02;;;4.70;99.90;;;;;;5021686;28;20022;-76
2022/01/19 07:40:08;;;;;;;36.03;13.10;;;4.70;99.90;;;;;;5007941;28;20044;-75
2022/01/19 07:42:36;;;;;;;35.15;12.98;;;4.70;99.90;;;;;;5025753;28;20077;-75
2022/01/19 07:45:05;;;;;;;38.35;13.20;;;4.70;99.90;;;;;;5021297;28;20041;-75
2022/01/19 07:47:31;;;;;;;37.78;13.05;;;4.80;99.90;;;;;;5017298;28;20418;-76
2022/01/19 07:49:57;;;;;;;38.15;12.52;;;4.80;99.90;;;;;;5016127;28;20042;-74
2022/01/19 07:52:23;;;;;;;37.05;11.93;;;4.80;99.90;;;;;;5019103;28;20028;-74
2022/01/19 07:54:49;;;;;;;49.25;14.02;;;4.80;99.90;;;;;;5019035;28;20034;-74
2022/01/19 07:57:14;;;;;;;25.17;10.93;;;4.90;99.90;;;;;;5015580;28;20106;-75
2022/01/19 07:59:40;;;;;;;31.23;12.50;;;4.90;99.90;;;;;;5021570;28;20026;-74
2022/01/19 08:02:06;;;;;;;36.20;12.60;;;4.90;99.90;;;;;;5015530;28;20033;-74
2022/01/19 08:04:32;;;;;;;36.75;11.55;;;4.90;99.90;;;;;;5022794;28;20033;-74
2022/01/19 08:06:57;;;;;;;34.30;11.73;;;4.90;99.90;;;;;;5020697;28;20041;-76
2022/01/19 08:09:25;;;;;;;46.55;13.25;;;4.90;99.90;;;;;;5006890;28;20117;-74
2022/01/19 08:11:51;;;;;;;36.13;11.90;;;4.90;99.90;;;;;;5024214;28;20030;-74
2022/01/19 08:14:16;;;;;;;36.17;12.20;;;4.90;99.90;;;;;;5024717;28;20509;-75
2022/01/19 08:16:42;;;;;;;36.15;11.63;;;5.10;99.90;;;;;;5024704;28;20056;-74
2022/01/19 08:19:08;;;;;;;41.75;12.88;;;4.90;99.90;;;;;;5006353;28;20043;-75
2022/01/19 08:21:34;;;;;;;36.78;10.30;;;5.00;99.90;;;;;;5018023;28;20033;-76
2022/01/19 08:24:03;;;;;;;32.70;11.68;;;5.00;99.90;;;;;;5024773;28;20037;-74
2022/01/19 08:26:29;;;;;;;45.45;12.90;;;5.00;99.90;;;;;;5023226;28;20026;-74
2022/01/19 08:28:54;;;;;;;35.20;13.80;;;5.00;99.90;;;;;;5024837;28;20022;-75
2022/01/19 08:31:20;;;;;;;40.63;13.02;;;5.00;99.90;;;;;;5023129;28;20030;-74
2022/01/19 08:33:46;;;;;;;38.40;13.52;;;5.00;99.90;;;;;;5022384;28;20044;-75
2022/01/19 08:36:11;;;;;;;34.88;11.57;;;5.00;99.90;;;;;;5012125;28;20030;-76
2022/01/19 08:38:40;;;;;;;34.97;10.27;;;5.00;99.90;;;;;;5009857;28;20033;-76
2022/01/19 08:41:06;;;;;;;36.20;12.00;;;5.00;99.90;;;;;;5020338;28;20026;-74
2022/01/19 08:43:32;;;;;;;32.53;12.13;;;5.00;99.90;;;;;;5024775;28;20041;-76
2022/01/19 08:45:57;;;;;;;36.03;12.90;;;5.00;99.90;;;;;;5023376;28;20880;-73
2022/01/19 08:48:23;;;;;;;35.15;11.65;;;5.00;99.90;;;;;;5022267;28;20399;-74
2022/01/19 08:50:49;;;;;;;38.20;12.50;;;5.10;99.90;;;;;;5024610;28;20049;-75
2022/01/19 08:53:15;;;;;;;39.88;13.95;;;5.00;99.90;;;;;;5022836;28;20041;-75
2022/01/19 08:55:40;;;;;;;32.78;10.63;;;5.00;99.90;;;;;;5022913;28;20022;-78
2022/01/19 08:58:07;;;;;;;43.90;11.52;;;5.10;99.90;;;;;;5023136;28;20053;-77
2022/01/19 09:00:33;;;;;;;29.83;11.10;;;5.10;99.90;;;;;;5021465;28;20022;-76
2022/01/19 09:03:02;;;;;;;23.90;11.45;;;5.00;99.90;;;;;;5003937;28;20026;-77
2022/01/19 09:05:28;;;;;;;33.90;12.52;;;5.00;99.90;;;;;;5018504;28;20080;-76
2022/01/19 09:08:00;;;;;;;38.70;11.27;;;5.00;99.90;;;;;;5022968;28;20672;-77
2022/01/19 09:10:26;;;;;;;36.08;12.00;;;5.10;99.90;;;;;;5035365;28;20065;-76
2022/01/19 09:12:57;;;;;;;34.97;12.02;;;5.00;99.90;;;;;;5031027;28;20026;-77
2022/01/19 09:15:24;;;;;;;36.47;11.65;;;5.00;99.90;;;;;;5016540;28;20049;-75
2022/01/19 09:17:50;;;;;;;30.05;10.13;;;5.00;99.90;;;;;;5032476;28;20044;-79
2022/01/19 09:20:16;;;;;;;31.63;11.00;;;5.00;99.90;;;;;;5031589;28;20041;-74
2022/01/19 09:22:42;;;;;;;29.70;9.25;;;5.00;99.90;;;;;;5025728;28;20024;-76
2022/01/19 09:25:10;;;;;;;32.65;10.90;;;4.90;99.90;;;;;;5022293;28;20159;-74
2022/01/19 09:27:38;;;;;;;24.60;8.35;;;4.90;99.90;;;;;;5019168;28;20053;-75
2022/01/19 09:30:11;;;;;;;24.83;9.52;;;4.80;99.90;;;;;;5015360;28;20030;-74
2022/01/19 09:32:39;;;;;;;21.42;9.10;;;4.80;99.90;;;;;;5015413;28;20191;-77
2022/01/19 09:35:09;;;;;;;21.25;6.95;;;4.80;99.90;;;;;;5038568;28;20048;-75
2022/01/19 09:37:37;;;;;;;21.63;7.80;;;4.80;99.90;;;;;;5031703;28;20080;-77
2022/01/19 09:40:05;;;;;;;29.08;8.80;;;4.70;99.90;;;;;;5033201;28;20105;-74
2022/01/19 09:42:31;;;;;;;28.17;8.77;;;4.70;99.90;;;;;;5034933;28;20097;-75
2022/01/19 09:44:57;;;;;;;27.67;8.98;;;4.70;99.90;;;;;;5025532;28;20469;-77
2022/01/19 09:47:23;;;;;;;30.60;10.05;;;4.70;99.90;;;;;;5007058;28;20038;-72
2022/01/19 09:49:48;;;;;;;36.50;12.50;;;4.70;99.90;;;;;;5023468;28;20573;-75
2022/01/19 09:52:14;;;;;;;32.38;10.57;;;4.80;99.90;;;;;;5006557;28;20034;-76
2022/01/19 09:54:39;;;;;;;29.75;9.27;;;4.60;99.90;;;;;;5029670;28;20038;-74
2022/01/19 09:57:06;;;;;;;27.67;10.05;;;4.60;99.90;;;;;;5041304;28;20099;-74
2022/01/19 09:59:31;;;;;;;24.92;6.70;;;4.50;99.90;;;;;;5033614;28;20053;-75
2022/01/19 10:02:07;;;;;;;29.42;10.48;;;4.50;99.90;;;;;;5044474;28;20021;-75
2022/01/19 10:04:42;;;;;;;27.83;8.95;;;4.40;99.90;;;;;;5031014;28;20097;-79
2022/01/19 10:07:20;;;;;;;29.95;9.45;;;4.40;99.90;;;;;;5024338;28;20032;-80
2022/01/19 10:09:57;;;;;;;28.60;9.90;;;4.40;99.90;;;;;;5027738;28;20038;-76
2022/01/19 10:18:12;;;;;;;23.77;10.27;;;4.30;99.90;;;;;;5016399;28;20041;-74
2022/01/19 10:20:38;;;;;;;24.27;10.02;;;4.30;99.90;;;;;;5006963;28;20042;-75
2022/01/19 10:23:04;;;;;;;34.67;10.98;;;4.30;99.90;;;;;;5023332;28;20056;-77
2022/01/19 10:25:51;;;;;;;38.05;12.20;;;4.30;99.90;;;;;;5009171;28;20057;-76
2022/01/19 10:28:16;;;;;;;29.90;12.77;;;4.30;99.90;;;;;;5024894;28;20034;-77
2022/01/19 10:30:42;;;;;;;37.05;11.23;;;4.30;99.90;;;;;;5023027;28;20040;-78
2022/01/19 10:33:08;;;;;;;33.03;10.35;;;4.30;99.90;;;;;;5027114;28;20045;-78
2022/01/19 10:35:38;;;;;;;24.65;10.63;;;4.30;99.90;;;;;;5021145;28;20422;-76
2022/01/19 10:38:16;;;;;;;30.83;10.65;;;4.30;99.90;;;;;;5021428;28;20039;-76
2022/01/19 10:41:05;;;;;;;27.88;9.75;;;4.30;99.90;;;;;;5024050;28;20041;-77
2022/01/19 10:43:37;;;;;;;26.55;10.07;;;4.30;99.90;;;;;;5022605;28;20034;-79
2022/01/19 10:46:15;;;;;;;16.50;7.07;;;4.30;99.90;;;;;;5019230;28;20389;-79
2022/01/19 10:48:42;;;;;;;24.58;9.75;;;4.20;99.90;;;;;;5011794;28;20505;-76
2022/01/19 10:51:20;;;;;;;31.58;10.32;;;4.30;99.90;;;;;;5025125;28;20030;-76
2022/01/19 10:54:07;;;;;;;35.08;10.93;;;4.30;99.90;;;;;;5008018;28;20056;-78
2022/01/19 10:56:39;;;;;;;29.17;9.70;;;4.30;99.90;;;;;;4984472;28;20026;-76
2022/01/19 10:59:12;;;;;;;21.20;7.43;;;4.30;99.90;;;;;;4985400;28;20097;-75
2022/01/19 11:01:47;;;;;;;29.08;11.25;;;4.40;99.90;;;;;;5000586;28;20065;-76
2022/01/19 11:04:32;;;;;;;21.55;9.52;;;4.40;99.90;;;;;;4986320;28;20041;-74
2022/01/19 11:07:24;;;;;;;24.83;9.00;;;4.40;99.90;;;;;;4986685;28;20034;-78
2022/01/19 11:12:40;;;;;;;34.60;11.45;;;4.40;99.90;;;;;;4986697;28;20077;-77
2022/01/19 11:15:09;;;;;;;32.47;11.32;;;4.40;99.90;;;;;;4998851;28;20061;-75
2022/01/19 11:17:36;;;;;;;28.20;11.02;;;4.50;99.90;;;;;;4990039;28;20111;-74
2022/01/19 11:20:08;;;;;;;27.10;10.75;;;4.50;99.90;;;;;;4986022;28;20116;-75
2022/01/19 11:22:45;;;;;;;32.58;10.02;;;4.50;99.90;;;;;;5002520;28;20026;-76
2022/01/19 11:26:07;;;;;;;35.00;11.52;;;4.50;99.90;;;;;;4978455;28;20030;-74
2022/01/19 11:28:44;;;;;;;27.83;9.77;;;4.50;99.90;;;;;;4958004;29;20035;-77
2022/01/19 11:31:15;;;;;;;32.65;12.27;;;4.50;99.90;;;;;;4979571;28;20042;-76
2022/01/19 11:33:52;;;;;;;37.22;9.45;;;4.60;99.90;;;;;;4996789;28;20046;-74
2022/01/19 11:36:24;;;;;;;29.85;10.88;;;4.60;99.90;;;;;;4997843;28;20027;-78
2022/01/19 11:39:20;;;;;;;21.73;9.32;;;4.60;99.90;;;;;;4998586;28;20038;-74
2022/01/19 11:41:54;;;;;;;25.08;7.97;;;4.60;99.90;;;;;;4990561;28;20023;-74
2022/01/19 11:44:32;;;;;;;24.98;10.82;;;4.60;99.90;;;;;;5004970;28;20034;-76
2022/01/19 11:47:24;;;;;;;28.85;11.63;;;4.70;99.90;;;;;;4983310;28;20041;-77
2022/01/19 11:49:58;;;;;;;26.52;10.93;;;4.70;99.90;;;;;;4968256;28;20031;-75
2022/01/19 11:53:03;;;;;;;36.63;10.98;;;4.70;99.90;;;;;;4967530;28;20033;-76
2022/01/19 11:55:33;;;;;;;35.97;11.52;;;4.80;99.90;;;;;;4986119;28;20046;-76
2022/01/19 11:58:21;;;;;;;28.88;10.90;;;4.80;99.90;;;;;;4985747;28;20147;-77
2022/01/19 12:00:51;;;;;;;34.30;12.60;;;4.80;99.90;;;;;;4970255;28;20039;-76
2022/01/19 12:03:35;;;;;;;21.45;8.23;;;4.90;99.90;;;;;;5005704;28;20026;-76
2022/01/19 12:06:04;;;;;;;31.55;11.80;;;4.90;99.90;;;;;;4988776;28;20043;-78
2022/01/19 12:08:36;;;;;;;29.60;8.90;;;4.90;99.90;;;;;;4986244;28;20034;-78
2022/01/19 12:11:14;;;;;;;30.13;9.43;;;4.90;99.90;;;;;;4999927;28;20026;-76
2022/01/19 12:14:00;;;;;;;45.53;11.75;;;4.90;99.90;;;;;;4988231;28;20054;-79
2022/01/19 12:19:08;;;;;;;39.78;11.90;;;4.90;99.90;;;;;;4993983;28;20034;-77
2022/01/19 12:21:53;;;;;;;;;;;;;;;;;;;;;
2022/01/19 12:24:30;;;;;;;33.30;13.82;;;4.90;99.90;;;;;;5004203;28;20569;-76
2022/01/19 12:27:21;;;;;;;30.30;11.52;;;4.90;99.90;;;;;;5003249;28;20045;-74
2022/01/19 12:29:51;;;;;;;32.63;11.70;;;4.90;99.90;;;;;;5003034;28;20027;-75
2022/01/19 12:32:16;;;;;;;31.75;11.20;;;4.90;99.90;;;;;;4984764;28;20022;-75
2022/01/19 12:35:11;;;;;;;34.70;10.38;;;4.90;99.90;;;;;;4984171;28;20049;-74
2022/01/19 12:37:39;;;;;;;38.63;10.52;;;5.00;99.90;;;;;;4983816;28;20110;-78
2022/01/19 12:40:35;;;;;;;27.85;10.73;;;5.00;99.90;;;;;;4995796;28;20026;-78
2022/01/19 12:43:32;;;;;;;32.72;11.63;;;5.00;99.90;;;;;;5002815;28;20121;-75
2022/01/19 12:46:05;;;;;;;40.60;12.68;;;4.90;99.90;;;;;;5002528;28;20110;-76
2022/01/19 12:48:41;;;;;;;31.65;11.95;;;4.90;99.90;;;;;;4985712;28;20034;-78
2022/01/19 12:51:41;;;;;;;24.60;10.80;;;4.90;99.90;;;;;;4989756;28;20081;-74
2022/01/19 12:54:12;;;;;;;34.25;12.55;;;5.00;99.90;;;;;;4999569;28;20046;-78
2022/01/19 12:57:04;;;;;;;29.70;12.13;;;4.90;99.90;;;;;;4988519;28;20046;-75
2022/01/19 12:59:32;;;;;;;31.88;12.05;;;5.00;99.90;;;;;;4996602;28;20035;-75
2022/01/19 13:01:59;;;;;;;42.75;13.82;;;5.00;99.90;;;;;;4989148;28;20043;-75
2022/01/19 13:04:34;;;;;;;40.35;14.25;;;5.00;99.90;;;;;;4989445;28;20657;-73
2022/01/19 13:07:19;;;;;;;28.83;11.20;;;5.00;99.90;;;;;;4992431;28;20038;-75
2022/01/19 13:10:22;;;;;;;35.17;11.80;;;5.00;99.90;;;;;;5007490;28;20027;-75
2022/01/19 13:13:09;;;;;;;34.42;12.68;;;5.00;99.90;;;;;;5006205;28;20030;-76
2022/01/19 13:15:52;;;;;;;29.05;10.82;;;4.90;99.90;;;;;;5006626;28;20110;-75
2022/01/19 13:18:38;;;;;;;35.20;14.45;;;5.00;99.90;;;;;;5007482;28;20696;-74
2022/01/19 13:21:16;;;;;;;38.88;11.23;;;5.00;99.90;;;;;;5007910;28;20037;-76
2022/01/19 13:24:09;;;;;;;50.03;11.95;;;5.00;99.90;;;;;;5007011;28;20030;-77
2022/01/19 13:26:47;;;;;;;31.00;11.50;;;5.00;99.90;;;;;;5005575;28;20027;-78
2022/01/19 13:29:17;;;;;;;31.52;12.77;;;5.00;99.90;;;;;;5005848;28;20022;-74
2022/01/19 13:32:07;;;;;;;36.10;12.70;;;5.00;99.90;;;;;;5006980;28;20038;-74
2022/01/19 13:34:54;;;;;;;36.47;12.25;;;4.90;99.90;;;;;;4977809;28;20073;-73
2022/01/19 13:37:21;;;;;;;58.47;15.10;;;4.90;99.90;;;;;;5006772;28;20052;-75
2022/01/19 13:40:11;;;;;;;36.72;12.68;;;4.90;99.90;;;;;;5006912;28;20026;-76
2022/01/19 13:42:51;;;;;;;35.40;12.70;;;4.90;99.90;;;;;;5006127;28;20030;-75
2022/01/19 13:45:38;;;;;;;40.63;13.55;;;4.90;99.90;;;;;;5006473;28;20023;-72
2022/01/19 13:50:51;;;;;;;37.45;11.85;;;5.00;99.90;;;;;;5005380;28;20038;-74
2022/01/19 13:53:37;;;;;;;38.65;12.25;;;5.00;99.90;;;;;;5006566;28;20149;-76
2022/01/19 13:56:14;;;;;;;35.10;13.82;;;5.00;99.90;;;;;;4989668;28;20387;-74
2022/01/19 13:58:53;;;;;;;39.30;14.02;;;4.90;99.90;;;;;;5006469;28;20042;-74
2022/01/19 14:01:24;;;;;;;42.08;12.82;;;4.90;99.90;;;;;;5005924;28;20049;-74
2022/01/19 14:03:55;;;;;;;52.40;14.02;;;4.90;99.90;;;;;;5007290;28;20054;-75
2022/01/19 14:06:32;;;;;;;35.17;12.10;;;4.90;99.90;;;;;;5007311;28;20033;-75
2022/01/19 14:09:27;;;;;;;35.50;14.15;;;4.90;99.90;;;;;;4989830;28;20023;-76
2022/01/19 14:12:27;;;;;;;44.63;15.82;;;4.90;99.90;;;;;;5006675;28;20030;-73
2022/01/19 14:14:56;;;;;;;51.95;15.27;;;5.00;99.90;;;;;;4945396;28;20055;-75
2022/01/19 14:17:36;;;;;;;40.75;12.93;;;4.90;99.90;;;;;;4967859;28;20027;-74
2022/01/19 14:20:14;;;;;;;46.33;14.05;;;4.90;99.90;;;;;;4967911;28;20028;-74
2022/01/19 14:22:40;;;;;;;44.72;13.23;;;4.90;99.90;;;;;;4971419;28;20050;-76
2022/01/19 14:25:12;;;;;;;54.88;12.73;;;4.90;99.90;;;;;;5000751;28;20094;-74
2022/01/19 14:27:41;;;;;;;52.47;12.38;;;4.90;99.90;;;;;;4980465;28;20037;-73